Accueil
METAR-TAF:

METAR-TAF

Aéroports :

Singapour, Singapour

Aéroport de Singapour Changi

latitude: 01-22N, longitude: 103-59E, altitude: 5 m

Observation

Le bulletin a été fait il y a 18 minutes, à 08:30 UTC
Vent 8 kt de sud/sud-ouest, variant entre sud et ouest
Température 31°C
Humidité 63%
Pression 1007 hPa
Visibilité 10 km ou plus
Quelques nuages à une hauteur de 2500 ft
Nuages fragmentés à une hauteur de 30000 ft

METAR: WSSS 240830Z 20008KT 170V260 9999 FEW025 BKN300 31/23 Q1007 NOSIG

Heure: 16:48 (08:48 UTC)

Prévision

Le bulletin a été fait il y a 48 minutes, à 08:00 UTC
Prévision valable du 24 à 08 UTC au 25 à 12 UTC
Vent 9 kt de sud
Visibilité 10 km ou plus
Quelques nuages à une hauteur de 1800 ft, Cumulonimbus.
Nuages épars à une hauteur de 2000 ft

TAF: WSSS 240800Z 2408/2512 17009KT 9999 FEW018CB SCT020

Observations et prévisions météorologiques de plus de 4000 aéroports (messages METAR et TAF).

Les stations disponibles sont représentées par des disques jaunes et rouges sur la carte.

Passer la souris dessus pour voir le nom de la station.

Cliquer dessus pour voir les observations et prévisions météorologiques.

Pour changer de carte: cliquez sur les boutons verts avec une croix noire pour zoomer, sur le bouton vert avec un tiret pour effectuer un zoom arrière, ou sur les flèches vertes pour les cartes adjacentes.


METAR-TAF: